Time;durP1;ratioP1;P1;durP2;ratioP2;P2;SDS_P1;SDS_P2;PMS_P1;PMS_P2;Temp;Humidity;BMP_temperature;BMP_pressure;BME280_temperature;BME280_humidity;BME280_pressure;Samples;Min_cycle;Max_cycle;Signal;HPM_P1;HPM_P2
2022/04/28 04:32:37;;;;;;;;;33.25;25.50;;;;;12.92;52.30;102063.00;5026441;28;45632;-73
2022/04/28 04:35:02;;;;;;;;;31.75;28.00;;;;;13.02;52.21;102080.56;4996503;28;45365;-74
2022/04/28 04:37:28;;;;;;;;;35.75;28.25;;;;;12.96;52.69;102074.50;5014348;28;45297;-74
2022/04/28 04:39:54;;;;;;;;;32.25;25.25;;;;;13.02;52.29;102080.56;5013959;28;46209;-73
2022/04/28 04:42:19;;;;;;;;;37.25;31.50;;;;;13.03;52.41;102085.00;5014324;28;45187;-72
2022/04/28 04:44:44;;;;;;;;;30.50;28.00;;;;;12.88;52.54;102064.00;5013944;28;45439;-75
2022/04/28 04:47:10;;;;;;;;;30.75;27.50;;;;;13.02;52.76;102091.31;4996000;28;46021;-72
2022/04/28 04:49:35;;;;;;;;;32.25;29.75;;;;;13.02;52.60;102087.75;5013649;28;46043;-73
2022/04/28 04:52:02;;;;;;;;;27.75;27.75;;;;;13.02;52.67;102087.75;5013511;28;45472;-73
2022/04/28 04:54:27;;;;;;;;;29.25;26.50;;;;;13.01;52.38;102091.41;5029327;28;45286;-75
2022/04/28 04:56:52;;;;;;;;;35.50;27.75;;;;;13.03;52.29;102098.47;5013957;28;45265;-72
2022/04/28 04:59:18;;;;;;;;;35.50;32.00;;;;;12.84;52.29;102070.44;5016334;28;46233;-73
2022/04/28 05:01:43;;;;;;;;;39.00;29.00;;;;;12.99;52.63;102098.66;5016748;28;45412;-73
2022/04/28 05:04:08;;;;;;;;;40.25;31.50;;;;;12.97;52.81;102087.03;5017128;28;45257;-73
2022/04/28 05:06:34;;;;;;;;;35.25;32.00;;;;;12.94;52.37;102096.09;5016801;28;45435;-73
2022/04/28 05:08:59;;;;;;;;;41.75;33.00;;;;;12.98;52.83;102113.91;5017089;28;46135;-74
2022/04/28 05:11:24;;;;;;;;;37.50;33.00;;;;;12.92;52.77;102095.28;5017044;28;45383;-73
2022/04/28 05:13:50;;;;;;;;;35.75;29.75;;;;;12.99;52.46;102117.50;5017348;28;45658;-75
2022/04/28 05:16:15;;;;;;;;;41.00;33.25;;;;;12.99;52.83;102115.69;5016796;28;45440;-74
2022/04/28 05:18:41;;;;;;;;;38.00;33.75;;;;;12.95;52.75;102111.31;5016567;28;45943;-74
2022/04/28 05:21:06;;;;;;;;;38.75;33.00;;;;;12.97;52.90;102116.66;5016830;28;45419;-76
2022/04/28 05:23:31;;;;;;;;;36.25;32.75;;;;;12.97;53.09;102117.53;5015982;28;45707;-76
2022/04/28 05:25:57;;;;;;;;;41.50;33.25;;;;;13.00;52.66;102128.22;5017393;28;45408;-75
2022/04/28 05:28:27;;;;;;;;;40.00;34.00;;;;;13.01;52.95;102126.41;5017436;28;46091;-74
2022/04/28 05:30:55;;;;;;;;;38.75;33.00;;;;;13.01;52.89;102134.47;5017404;28;45362;-76
2022/04/28 05:33:21;;;;;;;;;38.75;32.75;;;;;12.93;52.75;102121.25;5017019;28;45364;-76
2022/04/28 05:35:46;;;;;;;;;36.50;34.50;;;;;12.98;52.83;102126.50;5016698;28;45389;-74
2022/04/28 05:38:12;;;;;;;;;39.50;32.75;;;;;12.95;52.57;102123.88;5017012;28;46307;-77
2022/04/28 05:40:40;;;;;;;;;41.00;33.00;;;;;12.99;53.14;102129.13;5016848;28;45320;-77
2022/04/28 05:45:51;;;;;;;;;42.00;35.75;;;;;13.14;52.76;102147.50;5025514;28;45321;-70
2022/04/28 05:48:19;;;;;;;;;36.50;33.25;;;;;13.19;52.84;102139.22;5035971;28;47453;-73
2022/04/28 05:50:45;;;;;;;;;45.00;36.00;;;;;13.20;52.37;102147.28;5036848;28;45394;-74
2022/04/28 05:53:11;;;;;;;;;37.00;34.00;;;;;13.22;52.38;102147.22;5018440;28;45463;-71
2022/04/28 05:55:38;;;;;;;;;38.50;30.75;;;;;13.18;52.10;102138.34;5026757;28;45287;-71
2022/04/28 05:58:03;;;;;;;;;39.50;34.75;;;;;13.25;52.54;102158.78;5016226;28;46040;-72
2022/04/28 06:00:31;;;;;;;;;49.50;38.50;;;;;13.30;51.99;102158.59;5014225;28;45420;-72
2022/04/28 06:02:56;;;;;;;;;43.25;36.75;;;;;13.32;52.14;102167.53;5013091;28;45483;-72
2022/04/28 06:05:22;;;;;;;;;41.25;33.50;;;;;13.34;52.30;102159.41;5014925;28;45558;-72
2022/04/28 06:07:48;;;;;;;;;32.25;30.75;;;;;13.28;52.55;102147.00;5015967;28;46027;-72
2022/04/28 06:10:14;;;;;;;;;39.00;35.00;;;;;13.39;52.33;102158.28;5014956;28;45335;-72
2022/04/28 06:12:43;;;;;;;;;36.00;32.75;;;;;13.47;52.40;102168.78;5016048;28;45310;-71
2022/04/28 06:15:09;;;;;;;;;40.25;35.25;;;;;13.48;52.38;102163.34;5014845;28;45602;-71
2022/04/28 06:17:35;;;;;;;;;46.00;35.50;;;;;13.55;51.79;102164.00;5015534;28;45502;-72
2022/04/28 06:20:00;;;;;;;;;41.50;34.25;;;;;13.58;51.66;102162.09;5016382;28;45351;-72
2022/04/28 06:22:25;;;;;;;;;42.00;34.25;;;;;13.68;51.61;102172.56;5016260;28;45901;-73
2022/04/28 06:24:55;;;;;;;;;40.00;34.25;;;;;13.69;51.54;102177.00;5016299;28;46009;-72
2022/04/28 06:27:21;;;;;;;;;42.75;35.50;;;;;13.78;51.19;102179.38;5016383;28;45403;-72
2022/04/28 06:29:48;;;;;;;;;35.25;32.75;;;;;13.82;51.41;102181.00;5016380;28;45242;-72
2022/04/28 06:32:17;;;;;;;;;42.50;35.00;;;;;13.84;51.21;102182.72;5015229;28;45699;-71
2022/04/28 06:34:43;;;;;;;;;43.25;35.50;;;;;13.88;51.54;102173.56;5015674;28;45611;-73
2022/04/28 06:37:09;;;;;;;;;43.25;35.50;;;;;13.91;50.93;102178.88;5015678;28;46377;-72
2022/04/28 06:39:34;;;;;;;;;30.00;30.00;;;;;13.92;50.92;102168.97;5016065;28;45355;-72
2022/04/28 06:42:00;;;;;;;;;47.75;34.50;;;;;14.05;51.24;102185.53;5015930;28;45480;-73
2022/04/28 06:44:25;;;;;;;;;38.50;34.75;;;;;14.10;50.80;102186.28;5015811;28;45595;-71
2022/04/28 06:46:50;;;;;;;;;39.50;32.25;;;;;14.13;50.22;102184.31;5015462;28;45368;-70
2022/04/28 06:49:16;;;;;;;;;44.25;36.00;;;;;14.21;50.61;102192.13;5015257;28;45369;-72
2022/04/28 06:51:41;;;;;;;;;38.75;34.50;;;;;14.26;50.83;102185.63;5015336;28;45591;-72
2022/04/28 06:54:06;;;;;;;;;45.00;35.75;;;;;14.31;50.76;102197.09;5028187;28;45494;-73
2022/04/28 06:56:32;;;;;;;;;45.75;38.75;;;;;14.35;50.25;102181.69;5018304;28;45329;-72
2022/04/28 06:58:57;;;;;;;;;47.25;37.50;;;;;14.43;50.47;102186.81;5015617;28;45585;-73
2022/04/28 07:01:22;;;;;;;;;43.25;36.75;;;;;14.55;50.30;102197.13;5015486;28;45355;-74
2022/04/28 07:03:48;;;;;;;;;45.75;36.00;;;;;14.49;50.38;102175.78;5021579;28;45373;-73
2022/04/28 07:06:13;;;;;;;;;47.00;36.00;;;;;14.67;49.55;102197.53;5024921;28;45980;-73
2022/04/28 07:08:38;;;;;;;;;41.50;35.00;;;;;14.70;49.36;102194.72;5013714;28;45357;-73
2022/04/28 07:11:04;;;;;;;;;38.25;35.00;;;;;14.76;49.20;102201.69;5015121;28;45559;-73
2022/04/28 07:13:29;;;;;;;;;37.75;33.75;;;;;14.81;49.10;102205.06;5014385;28;45345;-74
2022/04/28 07:15:55;;;;;;;;;43.75;35.00;;;;;14.87;49.22;102198.56;5014626;28;45809;-73
2022/04/28 07:18:20;;;;;;;;;50.25;39.00;;;;;14.89;49.62;102197.53;5014841;28;45529;-73
2022/04/28 07:20:46;;;;;;;;;45.00;37.50;;;;;14.94;48.60;102194.66;5014561;28;45453;-72
2022/04/28 07:23:11;;;;;;;;;42.25;34.25;;;;;15.03;49.40;102205.97;5015228;28;45458;-76
2022/04/28 07:25:36;;;;;;;;;47.00;35.25;;;;;15.11;49.29;102197.56;5016609;28;45483;-73
2022/04/28 07:28:02;;;;;;;;;46.00;35.75;;;;;15.17;48.64;102197.28;5015235;28;45325;-72
2022/04/28 07:30:28;;;;;;;;;42.50;34.75;;;;;15.26;48.45;102212.22;5014706;28;45435;-73
2022/04/28 07:32:53;;;;;;;;;48.25;38.00;;;;;15.28;47.98;102205.81;5013867;28;45246;-74
2022/04/28 07:35:20;;;;;;;;;40.50;34.75;;;;;15.28;47.78;102200.44;5024855;28;46011;-73
2022/04/28 07:37:46;;;;;;;;;38.25;34.25;;;;;15.35;48.52;102209.13;5038823;28;45315;-74
2022/04/28 07:40:11;;;;;;;;;46.75;37.25;;;;;15.31;48.34;102186.75;5037155;28;45500;-74
2022/04/28 07:42:37;;;;;;;;;38.00;33.75;;;;;15.45;48.28;102188.91;5034458;28;45317;-74
2022/04/28 07:45:04;;;;;;;;;42.00;35.00;;;;;15.52;48.27;102196.66;5034198;28;46292;-74
2022/04/28 07:47:30;;;;;;;;;44.25;35.50;;;;;15.71;47.23;102204.91;5033870;28;45376;-74
2022/04/28 07:49:55;;;;;;;;;37.00;32.25;;;;;15.79;47.50;102208.13;5034056;28;45532;-76
2022/04/28 07:52:21;;;;;;;;;40.75;37.75;;;;;15.86;47.09;102206.91;5034780;28;45463;-71
2022/04/28 07:54:46;;;;;;;;;45.00;34.25;;;;;15.95;46.78;102204.75;5031236;28;46279;-73
2022/04/28 07:57:11;;;;;;;;;42.50;35.75;;;;;15.98;46.61;102202.78;5014259;28;45213;-74
2022/04/28 07:59:37;;;;;;;;;39.75;34.00;;;;;16.09;46.58;102213.09;5014212;28;45885;-73
2022/04/28 08:02:03;;;;;;;;;39.25;35.00;;;;;16.03;46.69;102192.63;4996571;28;47287;-74
2022/04/28 08:04:29;;;;;;;;;41.50;36.75;;;;;16.14;46.17;102201.13;5014059;28;46272;-75
2022/04/28 08:06:55;;;;;;;;;42.75;36.25;;;;;16.25;46.54;102211.44;5014266;28;45500;-73
2022/04/28 08:09:20;;;;;;;;;36.25;32.75;;;;;16.28;45.79;102208.59;5013969;28;45401;-73
2022/04/28 08:11:46;;;;;;;;;39.25;33.00;;;;;16.29;45.75;102204.97;5013966;28;45295;-73
2022/04/28 08:14:11;;;;;;;;;40.25;34.25;;;;;16.35;45.59;102209.19;5013954;28;46105;-73
2022/04/28 08:16:37;;;;;;;;;46.50;34.25;;;;;16.31;45.82;102210.31;5014042;28;45355;-73
2022/04/28 08:19:03;;;;;;;;;43.00;34.00;;;;;16.41;45.75;102220.63;5013645;28;45384;-72
2022/04/28 08:21:28;;;;;;;;;41.75;35.50;;;;;16.49;45.51;102222.97;5013817;28;45599;-73
2022/04/28 08:23:54;;;;;;;;;43.50;34.00;;;;;16.52;45.56;102206.56;5013899;28;45996;-73
2022/04/28 08:26:19;;;;;;;;;47.50;37.25;;;;;16.64;45.15;102217.75;5014237;28;45340;-74
2022/04/28 08:28:44;;;;;;;;;36.50;33.50;;;;;16.68;44.67;102212.16;5014581;28;45333;-73
2022/04/28 08:31:10;;;;;;;;;41.00;33.25;;;;;16.76;44.97;102207.28;5013700;28;45599;-72
2022/04/28 08:33:35;;;;;;;;;40.00;32.75;;;;;16.92;45.74;102216.41;5014953;28;46099;-74
2022/04/28 08:36:00;;;;;;;;;39.75;32.50;;;;;16.99;44.95;102215.16;5017589;28;45159;-72
2022/04/28 08:38:27;;;;;;;;;34.25;31.75;;;;;17.10;44.64;102210.06;5017459;28;45221;-73
2022/04/28 08:40:59;;;;;;;;;33.50;33.50;;;;;17.20;44.62;102211.38;5017511;28;45503;-73
2022/04/28 08:43:27;;;;;;;;;38.50;32.50;;;;;17.25;44.29;102213.88;5017080;28;47266;-73
2022/04/28 08:48:49;;;;;;;;;36.25;31.50;;;;;17.45;44.18;102211.00;5025090;28;45472;-73
2022/04/28 08:51:17;;;;;;;;;33.75;32.00;;;;;17.48;43.56;102197.28;5036623;28;45473;-74
2022/04/28 08:53:47;;;;;;;;;36.50;32.50;;;;;17.56;43.23;102205.03;5036617;28;45400;-72
2022/04/28 08:56:13;;;;;;;;;37.00;32.00;;;;;17.59;43.24;102208.47;5022599;28;45408;-74
2022/04/28 08:58:39;;;;;;;;;35.50;31.25;;;;;17.61;43.25;102200.22;5017277;28;45478;-75
2022/04/28 09:01:04;;;;;;;;;38.25;34.00;;;;;17.63;43.22;102192.94;5016658;28;45397;-75
2022/04/28 09:03:30;;;;;;;;;32.50;27.50;;;;;17.70;43.63;102200.66;5016659;28;45346;-73
2022/04/28 09:05:55;;;;;;;;;33.25;31.25;;;;;17.75;43.10;102195.00;5016807;28;45414;-73
2022/04/28 09:08:21;;;;;;;;;30.50;28.50;;;;;17.84;42.38;102196.38;5017521;28;45391;-74
2022/04/28 09:10:46;;;;;;;;;27.75;26.50;;;;;17.88;42.40;102200.66;5016961;28;45334;-72
2022/04/28 09:15:56;;;;;;;;;26.00;24.00;;;;;17.99;41.57;102196.41;5016857;28;45326;-73
2022/04/28 09:18:23;;;;;;;;;27.25;24.25;;;;;18.02;41.18;102198.09;5016894;28;45433;-74
2022/04/28 09:20:50;;;;;;;;;31.25;27.00;;;;;17.91;41.05;102163.41;5016650;28;45946;-73
2022/04/28 09:23:17;;;;;;;;;26.75;25.75;;;;;18.06;41.34;102189.69;5021903;28;45300;-74
2022/04/28 09:25:44;;;;;;;;;23.75;23.00;;;;;18.04;41.08;102179.88;5019306;28;45286;-73
2022/04/28 09:28:11;;;;;;;;;28.75;24.75;;;;;18.18;40.92;102190.88;5016818;28;45586;-74
2022/04/28 09:30:50;;;;;;;;;23.50;21.25;;;;;18.25;41.11;102185.97;5016235;28;45499;-73
2022/04/28 09:33:22;;;;;;;;;28.00;23.25;;;;;18.30;40.86;102181.16;5016160;28;46434;-75
2022/04/28 09:35:52;;;;;;;;;25.00;21.75;;;;;18.32;40.30;102179.25;5023202;28;45407;-74
2022/04/28 09:38:19;;;;;;;;;21.50;20.25;;;;;18.39;40.19;102177.94;5022237;28;45415;-74
2022/04/28 09:43:31;;;;;;;;;27.00;24.00;;;;;18.58;39.76;102189.56;5032350;28;45340;-73
2022/04/28 09:45:58;;;;;;;;;24.00;23.00;;;;;18.61;39.80;102185.81;5016217;28;45467;-72
2022/04/28 09:48:28;;;;;;;;;26.25;24.50;;;;;18.66;39.08;102183.69;5016238;28;45301;-73
2022/04/28 09:51:04;;;;;;;;;26.00;25.75;;;;;18.65;39.12;102180.09;5016162;28;45506;-73
2022/04/28 09:53:36;;;;;;;;;21.25;15.00;;;;;18.76;39.35;102179.50;5023411;28;46322;-74
2022/04/28 09:56:05;;;;;;;;;26.75;26.75;;;;;18.76;39.31;102171.34;5005197;28;45420;-74
2022/04/28 09:58:31;;;;;;;;;28.50;27.00;;;;;18.85;39.25;102178.97;5015976;28;45341;-74
2022/04/28 10:01:02;;;;;;;;;23.50;21.75;;;;;18.85;39.36;102174.41;5015876;28;45534;-75
2022/04/28 10:03:30;;;;;;;;;23.75;23.00;;;;;18.97;38.62;102177.41;5015752;28;45731;-76
2022/04/28 10:05:57;;;;;;;;;22.00;20.00;;;;;19.01;37.75;102173.50;5016113;28;45391;-78
2022/04/28 10:08:24;;;;;;;;;23.50;20.75;;;;;18.99;37.28;102168.16;4998564;28;45470;-74
2022/04/28 10:10:54;;;;;;;;;24.00;22.00;;;;;18.95;37.21;102138.53;5015635;28;45186;-73
2022/04/28 10:13:21;;;;;;;;;21.50;19.25;;;;;19.07;37.54;102156.84;5016208;28;46113;-75
2022/04/28 10:15:53;;;;;;;;;22.00;19.00;;;;;19.17;37.88;102169.81;5016270;28;45426;-73
2022/04/28 10:18:23;;;;;;;;;20.25;19.25;;;;;19.28;37.45;102171.88;5015767;28;45263;-73
2022/04/28 10:20:51;;;;;;;;;19.75;17.25;;;;;19.34;37.63;102148.88;5015886;28;45490;-76
2022/04/28 10:32:22;;;;;;;;;20.50;19.00;;;;;19.48;37.30;102160.69;5014011;28;47663;-73
2022/04/28 10:34:32;;;;;;;;;17.00;15.00;;;;;19.67;36.54;102126.94;5035267;28;45376;-70
2022/04/28 10:36:59;;;;;;;;;18.75;17.25;;;;;19.82;36.28;102153.22;5035333;28;45376;-74
2022/04/28 10:39:39;;;;;;;;;18.75;18.75;;;;;19.94;36.11;102153.31;5035507;28;45270;-74
2022/04/28 10:42:35;;;;;;;;;18.25;16.50;;;;;20.02;35.39;102148.25;5035019;28;45401;-76
2022/04/28 10:45:04;;;;;;;;;18.00;18.00;;;;;20.07;35.94;102147.97;5019758;28;46098;-75
2022/04/28 10:47:37;;;;;;;;;19.75;18.25;;;;;20.11;35.28;102143.19;5035050;28;45463;-75
2022/04/28 10:50:20;;;;;;;;;18.75;15.75;;;;;20.15;35.07;102144.78;5035206;28;45537;-72
2022/04/28 10:53:03;;;;;;;;;18.75;16.00;;;;;20.17;34.76;102131.91;5034866;28;45371;-72
2022/04/28 10:55:55;;;;;;;;;15.25;15.25;;;;;20.32;34.76;102134.53;5016073;28;46624;-73
2022/04/28 10:58:25;;;;;;;;;18.25;16.00;;;;;20.34;34.32;102123.56;5011009;28;45494;-73
2022/04/28 11:00:55;;;;;;;;;13.75;12.75;;;;;20.35;33.92;102130.75;5015470;28;45393;-74
2022/04/28 11:03:48;;;;;;;;;15.75;14.00;;;;;20.47;33.67;102129.97;5013986;28;46081;-74
2022/04/28 11:06:18;;;;;;;;;13.50;11.25;;;;;20.48;33.11;102119.94;5015151;28;46320;-76
2022/04/28 11:08:55;;;;;;;;;13.25;10.75;;;;;20.54;31.71;102125.00;5016154;28;45283;-79
2022/04/28 11:11:24;;;;;;;;;12.50;12.50;;;;;20.64;31.69;102120.69;5015832;28;45404;-76
2022/04/28 11:13:57;;;;;;;;;13.25;11.50;;;;;20.71;30.95;102119.31;5015437;28;45537;-75
2022/04/28 11:16:24;;;;;;;;;13.00;13.00;;;;;20.71;31.36;102112.00;5013619;28;48680;-76
2022/04/28 11:18:49;;;;;;;;;11.75;11.75;;;;;20.82;31.98;102104.97;5015054;28;45382;-75
2022/04/28 11:21:15;;;;;;;;;13.75;12.25;;;;;21.11;32.03;102125.66;5015118;28;45488;-74
2022/04/28 11:23:46;;;;;;;;;12.00;11.25;;;;;21.10;31.47;102107.53;5029058;28;45475;-75
2022/04/28 11:26:13;;;;;;;;;12.50;12.50;;;;;21.41;30.12;102125.44;5016671;28;46191;-77
2022/04/28 11:28:39;;;;;;;;;9.00;8.50;;;;;21.48;29.75;102119.47;5015074;28;45332;-76
2022/04/28 11:31:10;;;;;;;;;8.00;7.75;;;;;21.57;29.44;102117.94;5015390;28;45472;-75
2022/04/28 11:33:39;;;;;;;;;11.25;10.25;;;;;21.73;29.87;102131.38;5014266;28;45459;-74
2022/04/28 11:36:18;;;;;;;;;13.50;11.50;;;;;21.80;29.45;102128.09;5014912;28;46686;-75
2022/04/28 11:38:53;;;;;;;;;10.75;8.75;;;;;21.89;29.23;102130.19;5014679;28;45499;-77
2022/04/28 11:41:31;;;;;;;;;11.00;10.00;;;;;21.98;29.67;102146.91;5014888;28;45324;-74
2022/04/28 11:44:01;;;;;;;;;10.50;9.50;;;;;21.94;29.90;102135.31;4996744;28;46039;-73
2022/04/28 11:46:27;;;;;;;;;14.50;10.00;;;;;21.97;29.04;102142.41;5014429;28;46606;-75
2022/04/28 11:48:54;;;;;;;;;8.25;8.25;;;;;21.98;28.86;102139.59;5021374;28;45415;-75
2022/04/28 11:51:24;;;;;;;;;13.00;10.50;;;;;21.97;29.37;102146.03;5034513;28;45518;-74
2022/04/28 11:53:50;;;;;;;;;11.00;10.75;;;;;21.92;29.04;102131.81;5016368;28;46219;-75
2022/04/28 11:56:22;;;;;;;;;12.25;10.75;;;;;21.88;28.90;102119.34;5019429;28;45946;-75
2022/04/28 11:58:52;;;;;;;;;11.25;9.75;;;;;22.05;29.11;102142.75;5014895;28;45385;-75
2022/04/28 12:01:22;;;;;;;;;10.25;10.25;;;;;22.00;28.59;102121.25;5014634;28;45331;-75
2022/04/28 12:03:50;;;;;;;;;9.25;9.25;;;;;22.06;28.92;102129.00;5014221;28;45407;-74
2022/04/28 12:06:17;;;;;;;;;11.00;10.75;;;;;22.12;28.46;102130.41;4995997;28;46284;-75
2022/04/28 12:08:55;;;;;;;;;9.50;8.25;;;;;22.22;28.39;102131.50;5014366;28;45434;-75
2022/04/28 12:14:22;;;;;;;;;11.25;10.50;;;;;22.68;27.20;102141.78;5013719;28;45412;-74
2022/04/28 12:19:55;;;;;;;;;8.00;7.25;;;;;22.76;28.01;102134.78;5014632;28;45412;-75
2022/04/28 12:22:50;;;;;;;;;8.00;8.00;;;;;22.89;27.58;102141.06;5012469;28;45519;-77
2022/04/28 12:25:16;;;;;;;;;9.00;9.00;;;;;23.00;27.80;102142.97;5011766;28;45556;-75
2022/04/28 12:27:46;;;;;;;;;8.25;8.25;;;;;23.10;27.94;102135.81;5013866;28;45394;-77
2022/04/28 12:30:17;;;;;;;;;11.25;9.50;;;;;23.22;28.04;102142.22;5013402;28;45423;-76
2022/04/28 12:32:56;;;;;;;;;10.25;10.25;;;;;23.32;27.53;102132.28;5013555;28;45306;-77
2022/04/28 12:35:27;;;;;;;;;9.50;9.50;;;;;23.38;26.33;102135.44;5013543;28;45466;-76
2022/04/28 12:37:58;;;;;;;;;9.50;8.00;;;;;23.51;26.78;102132.66;5013851;28;45385;-77
2022/04/28 12:40:24;;;;;;;;;7.25;7.25;;;;;23.75;26.76;102136.19;5013666;28;45262;-76
2022/04/28 12:42:50;;;;;;;;;9.25;8.75;;;;;23.88;26.69;102129.75;5014117;28;45380;-78
2022/04/28 12:45:43;;;;;;;;;11.00;8.50;;;;;23.86;25.89;102118.03;4995716;28;46935;-77
2022/04/28 12:48:31;;;;;;;;;8.50;8.50;;;;;23.94;25.21;102116.41;5013609;28;45808;-77
2022/04/28 12:51:14;;;;;;;;;12.25;8.75;;;;;24.25;25.36;102120.31;5014016;28;45385;-78
2022/04/28 12:53:44;;;;;;;;;7.75;7.50;;;;;24.31;24.66;102108.00;5020695;28;45665;-76
2022/04/28 12:56:12;;;;;;;;;8.25;8.25;;;;;24.43;24.33;102117.94;5019847;28;45393;-75
2022/04/28 12:58:39;;;;;;;;;9.50;9.50;;;;;24.52;24.67;102106.19;5013889;28;46649;-78
2022/04/28 13:01:09;;;;;;;;;11.00;9.25;;;;;24.68;25.22;102119.50;5013856;28;45350;-82
2022/04/28 13:03:34;;;;;;;;;9.00;9.00;;;;;24.81;25.20;102112.88;5014441;28;45341;-76
2022/04/28 13:06:00;;;;;;;;;8.50;8.00;;;;;24.99;24.83;102118.72;5033093;28;45509;-77
2022/04/28 13:08:25;;;;;;;;;13.50;11.00;;;;;25.14;25.07;102113.78;5033386;28;45558;-77
2022/04/28 13:10:53;;;;;;;;;12.50;10.00;;;;;25.18;24.36;102113.38;5032212;28;45452;-76
2022/04/28 13:13:18;;;;;;;;;9.00;9.00;;;;;25.32;24.00;102117.69;5033564;28;45470;-77
2022/04/28 13:15:44;;;;;;;;;7.00;7.00;;;;;25.35;23.48;102105.59;5033400;28;45534;-76
2022/04/28 13:18:09;;;;;;;;;8.50;8.50;;;;;25.51;23.66;102111.47;5033251;28;45427;-76
2022/04/28 13:20:35;;;;;;;;;8.50;5.75;;;;;25.53;23.46;102117.69;5036732;28;45616;-77
2022/04/28 13:23:01;;;;;;;;;11.25;6.25;;;;;25.43;23.92;102122.25;5037318;28;45426;-76
2022/04/28 13:25:26;;;;;;;;;9.25;9.25;;;;;25.34;23.63;102114.81;5036864;28;45386;-76
2022/04/28 13:27:51;;;;;;;;;7.75;6.00;;;;;25.20;23.67;102119.59;5036998;28;46085;-77
2022/04/28 13:30:17;;;;;;;;;11.50;9.00;;;;;25.19;23.64;102112.38;5036721;28;45347;-76
2022/04/28 13:32:42;;;;;;;;;6.75;6.75;;;;;25.27;24.08;102122.69;5037061;28;45886;-76
2022/04/28 13:35:08;;;;;;;;;9.00;7.00;;;;;25.35;24.11;102122.06;5018765;28;45304;-76
2022/04/28 13:37:33;;;;;;;;;7.75;7.75;;;;;25.57;23.46;102125.53;5037714;28;46470;-75
2022/04/28 13:39:59;;;;;;;;;9.50;9.50;;;;;25.87;23.52;102121.97;5036769;28;45399;-77
2022/04/28 13:42:24;;;;;;;;;10.50;9.50;;;;;26.19;23.14;102113.63;5037321;28;45423;-76
2022/04/28 13:44:49;;;;;;;;;12.00;7.00;;;;;26.55;22.30;102114.03;5037026;28;45293;-77
2022/04/28 13:47:15;;;;;;;;;8.00;6.50;;;;;26.68;21.93;102112.78;5037432;28;46079;-76
2022/04/28 13:49:40;;;;;;;;;7.75;7.25;;;;;26.72;21.53;102110.59;5019594;28;45318;-78
2022/04/28 13:52:06;;;;;;;;;6.00;6.00;;;;;26.72;22.07;102111.47;5038093;28;45170;-77
2022/04/28 13:54:31;;;;;;;;;10.75;8.00;;;;;26.71;22.09;102086.88;5035894;28;45584;-76
2022/04/28 13:56:57;;;;;;;;;8.00;7.25;;;;;26.83;21.51;102096.72;5016775;28;46134;-75
2022/04/28 13:59:22;;;;;;;;;8.00;8.00;;;;;26.99;21.37;102108.06;5016245;28;45377;-77
2022/04/28 14:01:47;;;;;;;;;7.00;7.00;;;;;26.98;20.69;102091.69;5016740;28;45309;-77
2022/04/28 14:04:14;;;;;;;;;6.50;6.25;;;;;26.99;20.56;102102.56;5015814;28;45513;-77
2022/04/28 14:06:39;;;;;;;;;6.00;6.00;;;;;26.96;20.47;102097.38;5017578;28;46031;-74
2022/04/28 14:09:05;;;;;;;;;7.00;6.00;;;;;26.86;20.34;102098.34;5016994;28;45332;-76
2022/04/28 14:11:33;;;;;;;;;7.50;6.00;;;;;26.69;20.23;102084.28;5017660;28;45271;-76
2022/04/28 14:13:59;;;;;;;;;7.50;6.25;;;;;26.63;19.40;102082.06;5017674;28;45489;-78
2022/04/28 14:16:24;;;;;;;;;6.25;6.25;;;;;26.55;19.84;102078.28;5017733;28;46026;-76
2022/04/28 14:18:50;;;;;;;;;6.50;6.25;;;;;26.61;20.03;102084.13;5017665;28;45351;-77
2022/04/28 14:21:16;;;;;;;;;10.75;7.50;;;;;26.53;20.54;102056.44;5017235;28;45569;-79
2022/04/28 14:23:41;;;;;;;;;7.50;6.25;;;;;26.79;20.00;102087.03;5016711;28;45492;-76
2022/04/28 14:26:06;;;;;;;;;9.00;6.00;;;;;26.94;20.21;102079.25;5029492;28;45486;-76
2022/04/28 14:28:32;;;;;;;;;5.25;5.25;;;;;27.05;19.45;102088.22;5016494;28;45356;-77
2022/04/28 14:30:58;;;;;;;;;6.25;6.25;;;;;27.24;20.03;102084.59;5015313;28;45338;-77
2022/04/28 14:33:24;;;;;;;;;8.50;7.50;;;;;27.37;19.70;102082.44;4998319;28;46194;-75
2022/04/28 14:35:49;;;;;;;;;8.00;8.00;;;;;27.34;19.48;102079.97;5016693;28;45412;-77
2022/04/28 14:38:18;;;;;;;;;4.75;4.75;;;;;27.19;19.81;102069.53;5016579;28;45362;-76
2022/04/28 14:40:44;;;;;;;;;7.75;6.50;;;;;27.05;20.28;102087.38;5023052;28;45273;-75
2022/04/28 14:43:09;;;;;;;;;7.50;5.50;;;;;26.85;19.69;102069.94;5035731;28;45569;-77
2022/04/28 14:45:35;;;;;;;;;5.00;4.75;;;;;26.69;19.70;102084.28;5035698;28;45578;-77
2022/04/28 14:48:01;;;;;;;;;5.00;5.00;;;;;26.41;19.80;102081.44;5035480;28;45390;-78
2022/04/28 14:53:12;;;;;;;;;6.50;5.00;;;;;26.10;20.20;102092.47;5035555;28;45482;-78
2022/04/28 14:55:38;;;;;;;;;10.50;4.00;;;;;26.10;21.29;102080.59;5025887;28;45468;-77
2022/04/28 14:58:12;;;;;;;;;4.50;4.50;;;;;26.04;20.62;102064.63;5015038;28;45353;-77
2022/04/28 15:00:37;;;;;;;;;8.25;8.25;;;;;26.19;20.52;102068.78;5015422;28;45568;-76
2022/04/28 15:03:03;;;;;;;;;7.00;7.00;;;;;26.22;20.16;102079.47;5015632;28;45499;-79
2022/04/28 15:05:30;;;;;;;;;4.75;4.75;;;;;26.24;21.09;102075.56;5015425;28;46731;-76
2022/04/28 15:07:56;;;;;;;;;6.00;6.00;;;;;26.24;20.78;102070.09;5016002;28;45353;-76
2022/04/28 15:10:21;;;;;;;;;7.00;7.00;;;;;26.26;20.15;102067.22;5015549;28;45326;-76
2022/04/28 15:12:47;;;;;;;;;6.25;6.25;;;;;26.35;20.37;102066.38;5015400;28;45635;-77
2022/04/28 15:15:13;;;;;;;;;10.25;7.25;;;;;26.35;20.51;102072.75;5015390;28;45452;-74
2022/04/28 15:17:39;;;;;;;;;9.00;6.25;;;;;26.38;20.79;102058.72;5017378;28;45362;-76
2022/04/28 15:20:07;;;;;;;;;5.75;5.75;;;;;26.39;20.70;102062.34;4998571;28;45357;-76
2022/04/28 15:22:33;;;;;;;;;5.50;5.50;;;;;26.40;20.64;102052.19;5015366;28;45503;-77
2022/04/28 15:24:58;;;;;;;;;6.25;6.25;;;;;26.34;20.03;102049.03;5015074;28;45975;-75
2022/04/28 15:27:24;;;;;;;;;7.00;5.75;;;;;26.29;20.63;102047.69;5015593;28;45462;-76
2022/04/28 15:29:49;;;;;;;;;6.00;5.50;;;;;26.29;20.99;102045.81;5021748;28;45496;-75
2022/04/28 15:32:14;;;;;;;;;7.75;6.25;;;;;26.36;20.03;102059.88;5016866;28;45496;-76
2022/04/28 15:34:40;;;;;;;;;4.75;4.75;;;;;26.41;20.46;102049.31;5015208;28;45569;-76
2022/04/28 15:37:06;;;;;;;;;7.25;7.00;;;;;26.46;20.19;102044.25;5016112;28;45448;-75
2022/04/28 15:39:32;;;;;;;;;7.75;7.75;;;;;26.60;20.22;102060.38;5015498;28;45471;-76
2022/04/28 15:41:58;;;;;;;;;8.25;5.75;;;;;26.65;19.45;102052.53;5015501;28;45269;-76
2022/04/28 15:44:23;;;;;;;;;4.75;4.75;;;;;26.66;19.31;102053.41;5014933;28;45413;-76
2022/04/28 15:46:49;;;;;;;;;6.25;5.00;;;;;26.69;19.87;102044.88;5015030;28;45408;-76
2022/04/28 15:49:17;;;;;;;;;4.75;4.75;;;;;26.72;20.22;102045.44;5023282;28;45452;-75
2022/04/28 15:51:43;;;;;;;;;8.75;7.25;;;;;26.80;19.56;102043.84;5015040;28;45442;-76
2022/04/28 15:54:11;;;;;;;;;4.00;4.00;;;;;26.90;20.22;102047.47;5027810;28;45510;-77
2022/04/28 15:56:37;;;;;;;;;6.00;6.00;;;;;26.88;19.62;102046.78;5017257;28;45464;-76
2022/04/28 15:59:04;;;;;;;;;6.00;6.00;;;;;26.84;19.64;102046.19;5026767;28;45378;-77
2022/04/28 16:01:29;;;;;;;;;7.50;6.50;;;;;26.85;20.36;102047.94;5035056;28;45554;-76
2022/04/28 16:03:55;;;;;;;;;9.75;8.75;;;;;26.84;20.39;102051.69;5034411;28;46111;-75
2022/04/28 16:06:22;;;;;;;;;7.75;5.25;;;;;26.73;20.65;102051.81;5033864;28;45360;-76
2022/04/28 16:08:47;;;;;;;;;5.75;4.75;;;;;26.69;20.69;102050.38;5033382;28;45477;-74
2022/04/28 16:11:15;;;;;;;;;10.50;6.00;;;;;26.70;21.87;102055.75;5040501;28;45449;-75
2022/04/28 16:13:41;;;;;;;;;8.75;7.00;;;;;26.68;21.57;102045.91;5034558;28;45472;-76
2022/04/28 16:16:07;;;;;;;;;7.00;7.00;;;;;26.68;21.72;102048.66;5035237;28;45361;-75